createdAt,value
2023-05-01T13:56:50.942Z,17.74
2023-05-01T13:59:17.166Z,17.78
2023-05-01T14:01:43.403Z,17.76
2023-05-01T14:04:09.697Z,17.82
2023-05-01T14:06:36.014Z,17.77
2023-05-01T14:09:02.309Z,17.81
2023-05-01T14:11:28.521Z,17.80
2023-05-01T14:13:54.728Z,17.82
2023-05-01T14:16:21.035Z,17.85
2023-05-01T14:18:47.344Z,17.89
2023-05-01T14:21:13.616Z,17.91
2023-05-01T14:23:39.869Z,17.97
2023-05-01T14:26:06.173Z,17.89
2023-05-01T14:28:32.465Z,17.99
2023-05-01T14:30:58.697Z,17.99
2023-05-01T14:33:24.965Z,17.91
2023-05-01T14:35:51.230Z,17.89
2023-05-01T14:38:17.497Z,17.90
2023-05-01T14:40:43.701Z,17.90
2023-05-01T14:43:09.926Z,17.86
2023-05-01T14:45:36.175Z,17.81
2023-05-01T14:48:02.509Z,17.85
2023-05-01T14:50:28.825Z,17.83
2023-05-01T14:52:55.157Z,17.78
2023-05-01T14:55:21.402Z,17.81
2023-05-01T14:57:47.696Z,17.82
2023-05-01T15:00:13.952Z,17.89
2023-05-01T15:02:40.219Z,17.84
2023-05-01T15:05:06.621Z,17.89
2023-05-01T15:07:32.884Z,17.90
2023-05-01T15:09:59.180Z,17.88
2023-05-01T15:12:25.462Z,17.88
2023-05-01T15:14:51.748Z,17.86
2023-05-01T15:17:17.980Z,17.81
2023-05-01T15:19:44.268Z,17.76
2023-05-01T15:22:10.519Z,17.75
2023-05-01T15:24:36.784Z,17.85
2023-05-01T15:27:03.057Z,17.79
2023-05-01T15:29:29.435Z,17.72
2023-05-01T15:32:08.218Z,17.71
2023-05-01T15:34:37.391Z,17.72
2023-05-01T15:37:03.644Z,17.68
2023-05-01T15:39:29.858Z,17.65
2023-05-01T15:41:56.111Z,17.61
2023-05-01T15:44:22.377Z,17.53
2023-05-01T15:46:48.732Z,17.42
2023-05-01T15:49:15.124Z,17.35
2023-05-01T15:51:41.364Z,17.38
2023-05-01T15:54:07.558Z,17.49
2023-05-01T15:56:33.815Z,17.58
2023-05-01T15:59:00.075Z,17.60
2023-05-01T16:01:26.486Z,17.61
2023-05-01T16:03:52.862Z,17.62
2023-05-01T16:06:19.404Z,17.46
2023-05-01T16:08:45.699Z,17.28
2023-05-01T16:11:11.972Z,17.16
2023-05-01T16:13:38.256Z,16.97
2023-05-01T16:16:04.578Z,16.95
2023-05-01T16:18:30.781Z,16.90
2023-05-01T16:20:57.053Z,16.95
2023-05-01T16:23:23.333Z,16.89
2023-05-01T16:25:49.613Z,16.91
2023-05-01T16:28:15.886Z,16.89
2023-05-01T16:30:42.113Z,16.93
2023-05-01T16:33:08.417Z,16.99
2023-05-01T16:35:34.684Z,16.97
2023-05-01T16:38:00.906Z,16.99
2023-05-01T16:40:27.151Z,16.99
2023-05-01T16:42:53.453Z,16.90
2023-05-01T16:45:19.769Z,16.79
2023-05-01T16:47:46.218Z,16.81
2023-05-01T16:50:14.815Z,16.84
2023-05-01T16:52:41.104Z,16.82
2023-05-01T16:55:07.452Z,16.88
2023-05-01T16:57:33.908Z,16.88
2023-05-01T17:00:00.493Z,16.91
2023-05-01T17:02:27.090Z,16.93
2023-05-01T17:04:53.489Z,16.89
2023-05-01T17:07:20.029Z,16.81
2023-05-01T17:09:46.252Z,16.67
2023-05-01T17:12:12.520Z,16.62
2023-05-01T17:14:38.793Z,16.62
2023-05-01T17:17:09.078Z,16.68
2023-05-01T17:19:35.869Z,16.68
2023-05-01T17:22:02.099Z,16.66
2023-05-01T17:24:28.317Z,16.68
2023-05-01T17:26:54.576Z,16.58
2023-05-01T17:29:20.794Z,16.58
2023-05-01T17:31:47.114Z,16.58
2023-05-01T17:34:13.365Z,16.54
2023-05-01T17:36:39.621Z,16.47
2023-05-01T17:39:05.847Z,16.43
2023-05-01T17:41:32.098Z,16.46
2023-05-01T17:43:58.364Z,16.43
2023-05-01T17:46:24.643Z,16.37
2023-05-01T17:48:50.959Z,16.27
2023-05-01T17:51:17.292Z,16.19
2023-05-01T17:53:43.590Z,16.08
2023-05-01T17:56:09.886Z,15.93
2023-05-01T17:58:36.142Z,15.81
2023-05-01T18:01:02.429Z,15.73
2023-05-01T18:03:28.864Z,15.68
2023-05-01T18:05:55.160Z,15.68
2023-05-01T18:08:21.392Z,15.61
2023-05-01T18:10:47.676Z,15.63
2023-05-01T18:13:13.947Z,15.69
2023-05-01T18:15:40.198Z,15.66
2023-05-01T18:18:06.477Z,15.69
2023-05-01T18:20:32.728Z,15.60
2023-05-01T18:22:58.981Z,15.55
2023-05-01T18:25:25.220Z,15.46
2023-05-01T18:27:51.471Z,15.42
2023-05-01T18:30:17.686Z,15.35
2023-05-01T18:32:47.719Z,15.33
2023-05-01T18:35:15.248Z,15.30
2023-05-01T18:37:41.491Z,15.23
2023-05-01T18:40:07.743Z,15.18
2023-05-01T18:42:33.997Z,15.15
2023-05-01T18:45:00.224Z,15.15
2023-05-01T18:47:26.530Z,15.17
2023-05-01T18:49:52.804Z,15.15
2023-05-01T18:52:19.047Z,15.11
2023-05-01T18:54:45.308Z,15.06
2023-05-01T18:57:11.584Z,15.00
2023-05-01T18:59:37.812Z,14.99
2023-05-01T19:02:04.195Z,14.95
2023-05-01T19:04:30.470Z,14.95
2023-05-01T19:06:56.775Z,14.87
2023-05-01T19:09:23.101Z,14.82
2023-05-01T19:11:49.346Z,14.83
2023-05-01T19:14:15.598Z,14.80
2023-05-01T19:16:41.897Z,14.80
2023-05-01T19:19:08.196Z,14.79
2023-05-01T19:21:34.376Z,14.71
2023-05-01T19:24:00.627Z,14.68
2023-05-01T19:26:26.939Z,14.67
2023-05-01T19:28:53.169Z,14.67
2023-05-01T19:31:19.487Z,14.61
2023-05-01T19:33:45.792Z,14.61
2023-05-01T19:36:12.018Z,14.64
2023-05-01T19:38:38.303Z,14.62
2023-05-01T19:41:04.521Z,14.63
2023-05-01T19:43:30.789Z,14.61
2023-05-01T19:45:57.133Z,14.59
2023-05-01T19:48:23.412Z,14.58
2023-05-01T19:50:49.641Z,14.58
2023-05-01T19:53:15.923Z,14.67
2023-05-01T19:55:42.160Z,14.69
2023-05-01T19:58:08.576Z,14.66
2023-05-01T20:00:34.819Z,14.65
2023-05-01T20:03:01.104Z,14.68
2023-05-01T20:05:27.450Z,14.69
2023-05-01T20:07:53.670Z,14.64
2023-05-01T20:10:19.926Z,14.64
2023-05-01T20:12:46.195Z,14.65
2023-05-01T20:15:12.470Z,14.68
2023-05-01T20:17:38.698Z,14.67
2023-05-01T20:20:04.953Z,14.69
2023-05-01T20:22:31.180Z,14.70
2023-05-01T20:24:57.430Z,14.67
2023-05-01T20:27:23.644Z,14.65
2023-05-01T20:29:49.857Z,14.65
2023-05-01T20:32:16.091Z,14.67
2023-05-01T20:34:42.364Z,14.68
2023-05-01T20:37:08.573Z,14.69
2023-05-01T20:39:34.837Z,14.68
2023-05-01T20:42:01.102Z,14.71
2023-05-01T20:44:27.296Z,14.68
2023-05-01T20:46:53.746Z,14.69
2023-05-01T20:49:20.140Z,14.69
2023-05-01T20:51:46.362Z,14.74
2023-05-01T20:54:12.614Z,14.77
2023-05-01T20:56:38.841Z,14.77
2023-05-01T20:59:05.078Z,14.79
2023-05-01T21:01:31.354Z,14.79
2023-05-01T21:03:57.816Z,14.77
2023-05-01T21:06:24.174Z,14.78
2023-05-01T21:08:50.425Z,14.78
2023-05-01T21:11:16.755Z,14.82
2023-05-01T21:13:43.023Z,14.82
2023-05-01T21:16:09.352Z,14.77
2023-05-01T21:18:35.670Z,14.75
2023-05-01T21:21:01.894Z,14.74
2023-05-01T21:23:28.145Z,14.76
2023-05-01T21:25:54.459Z,14.76
2023-05-01T21:28:20.725Z,14.76
2023-05-01T21:30:46.998Z,14.77
2023-05-01T21:33:13.315Z,14.77
2023-05-01T21:35:39.594Z,14.78
2023-05-01T21:38:05.858Z,14.80
2023-05-01T21:40:32.093Z,14.80
2023-05-01T21:42:58.328Z,14.78
2023-05-01T21:45:24.592Z,14.76
2023-05-01T21:47:50.953Z,14.77
2023-05-01T21:50:17.413Z,14.78
2023-05-01T21:52:43.608Z,14.76
2023-05-01T21:55:09.850Z,14.77
2023-05-01T21:57:36.090Z,14.80
2023-05-01T22:00:02.505Z,14.83
2023-05-01T22:02:28.868Z,14.87
2023-05-01T22:04:55.157Z,14.84
2023-05-01T22:07:21.382Z,14.83
2023-05-01T22:09:47.647Z,14.84
2023-05-01T22:12:13.901Z,14.84
2023-05-01T22:14:47.265Z,14.81
2023-05-01T22:17:13.880Z,14.75
2023-05-01T22:19:40.120Z,14.74
2023-05-01T22:22:06.367Z,14.75
2023-05-01T22:24:32.596Z,14.74
2023-05-01T22:26:58.840Z,14.67
2023-05-01T22:29:25.077Z,14.64
2023-05-01T22:31:51.370Z,14.62
2023-05-01T22:34:17.643Z,14.59
2023-05-01T22:36:43.884Z,14.57
2023-05-01T22:39:10.178Z,14.53
2023-05-01T22:41:36.470Z,14.52
2023-05-01T22:44:02.704Z,14.49
2023-05-01T22:46:29.056Z,14.48
2023-05-01T22:48:55.323Z,14.49
2023-05-01T22:51:21.602Z,14.48
2023-05-01T22:53:47.840Z,14.50
2023-05-01T22:56:14.087Z,14.50
2023-05-01T22:58:40.317Z,14.44
2023-05-01T23:01:06.594Z,14.41
2023-05-01T23:03:33.352Z,14.40
2023-05-01T23:06:00.446Z,14.39
2023-05-01T23:08:26.700Z,14.38
2023-05-01T23:10:52.916Z,14.35
2023-05-01T23:13:19.175Z,14.30
2023-05-01T23:15:45.498Z,14.33
2023-05-01T23:18:11.777Z,14.32
2023-05-01T23:20:38.045Z,14.32
2023-05-01T23:23:04.335Z,14.31
2023-05-01T23:25:30.567Z,14.32
2023-05-01T23:27:56.784Z,14.34
2023-05-01T23:30:23.000Z,14.33
2023-05-01T23:32:49.306Z,14.33
2023-05-01T23:35:15.562Z,14.31
2023-05-01T23:37:41.863Z,14.31
2023-05-01T23:40:08.099Z,14.31
2023-05-01T23:42:34.484Z,14.27
2023-05-01T23:45:00.746Z,14.28
2023-05-01T23:47:27.061Z,14.27
2023-05-01T23:49:53.392Z,14.24
2023-05-01T23:52:19.612Z,14.16
2023-05-01T23:54:45.901Z,14.20
2023-05-01T23:57:12.139Z,14.20
2023-05-01T23:59:38.371Z,14.23
